Blue Fox — WCW4903 — position and weather

sailwx.info

Track history (hours):
 
Tides and Currents Weather Stations Pressure Air Temp Water Temp Dewpoint Dewpoint Depression Visibility Wind Speed Wind Dir Waves Ship Positions

Blue Fox

Owner: PACIFIC DRAGGERS INC & H B LEE INC, NEWPORT, OR. More information available from US FCC via Universal Licensing System and Coast Guard Vessel Documentation Center.

Last reported at 2017-Oct-17 03:08 UTC. Time now 2017-Oct-17 11:09 UTC.
Position N 44°34' W 124°09'.

Length 30 m; draft 4 m.

Type: Fishing. MMSI: 366969616.

Date/timePositionNaut miles runAvg speedWind from/ knotsBaromVisibWave heightAir tempDewpointWater temp
2017-Oct-17 03:08N 44°34' W 124°09'50 7.2
2017-Oct-16 20:13N 43°53' W 124°49'0 1.7
2017-Oct-16 19:59N 43°53' W 124°48'1 2.7
2017-Oct-16 19:30N 43°54' W 124°47'1 3.0
2017-Oct-16 19:00N 43°54' W 124°45'1 3.0
2017-Oct-16 18:30N 43°53' W 124°43'4 2.0
2017-Oct-16 16:30N 43°53' W 124°49'1 2.5
2017-Oct-16 16:00N 43°54' W 124°47'2 3.0
2017-Oct-16 15:18N 43°53' W 124°44'1 2.9
2017-Oct-16 15:00N 43°54' W 124°43'0 0.0
2017-Oct-16 13:57N 43°54' W 124°43'0 0.9
2017-Oct-16 13:30N 43°54' W 124°43'2 3.2
2017-Oct-16 13:00N 43°55' W 124°42'1 2.3
2017-Oct-16 12:30N 43°56' W 124°41'4 8.5
2017-Oct-16 12:00N 43°60' W 124°38'15 8.6
2017-Oct-16 10:16N 44°13' W 124°27'18 8.9
2017-Oct-16 08:15N 44°28' W 124°14'3 8.6
2017-Oct-16 07:55N 44°30' W 124°12'43 1.2
2017-Oct-14 19:33N 43°59' W 124°52'0 8.6
2017-Oct-14 19:30N 43°58' W 124°53'5 7.5
2017-Oct-14 18:51N 43°55' W 124°57'1 1.7
2017-Oct-14 18:30N 43°55' W 124°56'1 1.6
2017-Oct-14 18:00N 43°56' W 124°56'2 2.6
2017-Oct-14 17:17N 43°57' W 124°58'1 2.7
2017-Oct-14 17:01N 43°58' W 124°58'1 2.8
2017-Oct-14 16:30N 43°59' W 124°58'  
2017-Oct-10 01:10N 44°05' W 124°59'0 2.4
2017-Oct-10 01:00N 44°06' W 124°59'1 2.4
2017-Oct-10 00:25N 44°07' W 124°59'1 2.8
2017-Oct-10 00:00N 44°08' W 124°59'1 2.9
2017-Oct-09 23:29N 44°10' W 124°59'1 2.9
2017-Oct-09 23:00N 44°11' W 124°59'2 3.0
2017-Oct-09 22:28N 44°13' W 124°58'1 3.0
2017-Oct-09 22:00N 44°14' W 124°57'1 1.1
2017-Oct-09 21:30N 44°14' W 124°57'3 6.4
2017-Oct-09 21:00N 44°11' W 124°59'1 2.6
2017-Oct-09 20:30N 44°10' W 124°58'1 1.1
2017-Oct-09 20:00N 44°11' W 124°58'1 2.4
2017-Oct-09 19:30N 44°12' W 124°58'1 2.8
2017-Oct-09 19:00N 44°13' W 124°57'1 2.7
2017-Oct-09 18:30N 44°14' W 124°57'1 2.8
2017-Oct-09 18:00N 44°16' W 124°56'2 2.6
2017-Oct-09 17:16N 44°17' W 124°55'1 2.7
2017-Oct-09 17:00N 44°18' W 124°54'1 2.6
2017-Oct-09 16:30N 44°19' W 124°53'0 0.3
2017-Oct-09 15:49N 44°19' W 124°53'2 8.2
2017-Oct-09 15:30N 44°20' W 124°50'3 5.6
2017-Oct-09 15:00N 44°23' W 124°49'1 2.6
2017-Oct-09 14:29N 44°24' W 124°48'1 2.9
2017-Oct-09 14:00N 44°25' W 124°47'3 6.9
2017-Oct-09 13:30N 44°25' W 124°42'4 8.3
2017-Oct-09 13:00N 44°26' W 124°37'4 8.5
2017-Oct-09 12:30N 44°28' W 124°31'4 8.4
2017-Oct-09 12:00N 44°30' W 124°26'8 0.2
2017-Oct-07 13:01N 44°33' W 124°36'0 1.1
2017-Oct-07 13:00N 44°33' W 124°36'  
Track history (hours):
 
Tides and Currents Weather Stations Pressure Air Temp Water Temp Dewpoint Dewpoint Depression Visibility Wind Speed Wind Dir Waves Ship Positions

Blue Fox

Owner: PACIFIC DRAGGERS INC & H B LEE INC, NEWPORT, OR. More information available from US FCC via Universal Licensing System and Coast Guard Vessel Documentation Center.

Last reported at 2017-Oct-17 03:08 UTC. Time now 2017-Oct-17 11:09 UTC.
Position N 44°34' W 124°09'.

Length 30 m; draft 4 m.

Type: Fishing. MMSI: 366969616.

Date/timePositionNaut miles runAvg speedWind from/ knotsBaromVisibWave heightAir tempDewpointWater temp
2017-Oct-17 03:08N 44°34' W 124°09'50 7.2
2017-Oct-16 20:13N 43°53' W 124°49'0 1.7
2017-Oct-16 19:59N 43°53' W 124°48'1 2.7
2017-Oct-16 19:30N 43°54' W 124°47'1 3.0
2017-Oct-16 19:00N 43°54' W 124°45'1 3.0
2017-Oct-16 18:30N 43°53' W 124°43'4 2.0
2017-Oct-16 16:30N 43°53' W 124°49'1 2.5
2017-Oct-16 16:00N 43°54' W 124°47'2 3.0
2017-Oct-16 15:18N 43°53' W 124°44'1 2.9
2017-Oct-16 15:00N 43°54' W 124°43'0 0.0
2017-Oct-16 13:57N 43°54' W 124°43'0 0.9
2017-Oct-16 13:30N 43°54' W 124°43'2 3.2
2017-Oct-16 13:00N 43°55' W 124°42'1 2.3
2017-Oct-16 12:30N 43°56' W 124°41'4 8.5
2017-Oct-16 12:00N 43°60' W 124°38'15 8.6
2017-Oct-16 10:16N 44°13' W 124°27'18 8.9
2017-Oct-16 08:15N 44°28' W 124°14'3 8.6
2017-Oct-16 07:55N 44°30' W 124°12'43 1.2
2017-Oct-14 19:33N 43°59' W 124°52'0 8.6
2017-Oct-14 19:30N 43°58' W 124°53'5 7.5
2017-Oct-14 18:51N 43°55' W 124°57'1 1.7
2017-Oct-14 18:30N 43°55' W 124°56'1 1.6
2017-Oct-14 18:00N 43°56' W 124°56'2 2.6
2017-Oct-14 17:17N 43°57' W 124°58'1 2.7
2017-Oct-14 17:01N 43°58' W 124°58'1 2.8
2017-Oct-14 16:30N 43°59' W 124°58'  
2017-Oct-10 01:10N 44°05' W 124°59'0 2.4
2017-Oct-10 01:00N 44°06' W 124°59'1 2.4
2017-Oct-10 00:25N 44°07' W 124°59'1 2.8
2017-Oct-10 00:00N 44°08' W 124°59'1 2.9
2017-Oct-09 23:29N 44°10' W 124°59'1 2.9
2017-Oct-09 23:00N 44°11' W 124°59'2 3.0
2017-Oct-09 22:28N 44°13' W 124°58'1 3.0
2017-Oct-09 22:00N 44°14' W 124°57'1 1.1
2017-Oct-09 21:30N 44°14' W 124°57'3 6.4
2017-Oct-09 21:00N 44°11' W 124°59'1 2.6
2017-Oct-09 20:30N 44°10' W 124°58'1 1.1
2017-Oct-09 20:00N 44°11' W 124°58'1 2.4
2017-Oct-09 19:30N 44°12' W 124°58'1 2.8
2017-Oct-09 19:00N 44°13' W 124°57'1 2.7
2017-Oct-09 18:30N 44°14' W 124°57'1 2.8
2017-Oct-09 18:00N 44°16' W 124°56'2 2.6
2017-Oct-09 17:16N 44°17' W 124°55'1 2.7
2017-Oct-09 17:00N 44°18' W 124°54'1 2.6
2017-Oct-09 16:30N 44°19' W 124°53'0 0.3
2017-Oct-09 15:49N 44°19' W 124°53'2 8.2
2017-Oct-09 15:30N 44°20' W 124°50'3 5.6
2017-Oct-09 15:00N 44°23' W 124°49'1 2.6
2017-Oct-09 14:29N 44°24' W 124°48'1 2.9
2017-Oct-09 14:00N 44°25' W 124°47'3 6.9
2017-Oct-09 13:30N 44°25' W 124°42'4 8.3
2017-Oct-09 13:00N 44°26' W 124°37'4 8.5
2017-Oct-09 12:30N 44°28' W 124°31'4 8.4
2017-Oct-09 12:00N 44°30' W 124°26'8 0.2
2017-Oct-07 13:01N 44°33' W 124°36'0 1.1
2017-Oct-07 13:00N 44°33' W 124°36'  

Dump ship's entire track history